Khanewal Weather



Khanewal's Current Weather

Temprature 25.7o clear sky

clear sky

Rain: 0 %

Min Temprature25.7o
Max Temprature25.7o
Humidity73
Wind Speed3.08 m/h
Sun Rise06:02:32
Sun Set18:04:53
Current Time: 26-Sep-2022 08:20:27
Lat/Lon: 30.3, 71.9333




Khanewal's Geo Location



Khanewal's Weather Forecast

Time Overall Temp Min Temp Max Temp Humidity Wind Speed Rain
26-Sep-2022 (Mon)
11:00:00 clear sky 28.050 28.050 32.740 63 2.26 m/h 0 %
14:00:00 clear sky 32.810 32.810 36.370 46 1.75 m/h 0 %
17:00:00 clear sky 35.480 35.480 35.480 34 1.95 m/h 0 %
20:00:00 clear sky 29.230 29.230 29.230 47 0.95 m/h 0 %
23:00:00 clear sky 28.150 28.150 28.150 51 0.67 m/h 0 %
27-Sep-2022 (Tue)
02:00:00 clear sky 27.140 27.140 27.140 54 1.89 m/h 0 %
05:00:00 clear sky 25.970 25.970 25.970 56 3.02 m/h 0 %
08:00:00 clear sky 29.170 29.170 29.170 41 3.18 m/h 0 %
11:00:00 clear sky 36.210 36.210 36.210 25 5.07 m/h 0 %
14:00:00 clear sky 38.480 38.480 38.480 20 5.56 m/h 0 %
17:00:00 clear sky 36.430 36.430 36.430 23 5.09 m/h 0 %
20:00:00 clear sky 30.040 30.040 30.040 34 3.96 m/h 0 %
23:00:00 clear sky 28.520 28.520 28.520 37 3.84 m/h 0 %
28-Sep-2022 (Wed)
02:00:00 clear sky 27.040 27.040 27.040 39 3.78 m/h 0 %
05:00:00 clear sky 25.730 25.730 25.730 41 3.56 m/h 0 %
08:00:00 clear sky 29.540 29.540 29.540 38 4.67 m/h 0 %
11:00:00 clear sky 36.600 36.600 36.600 25 6.08 m/h 0 %
14:00:00 clear sky 38.420 38.420 38.420 21 5.33 m/h 0 %
17:00:00 clear sky 36.190 36.190 36.190 25 4.51 m/h 0 %
20:00:00 clear sky 30.370 30.370 30.370 33 4.05 m/h 0 %
23:00:00 clear sky 28.210 28.210 28.210 31 3.75 m/h 0 %
29-Sep-2022 (Thu)
02:00:00 clear sky 26.450 26.450 26.450 28 3.71 m/h 0 %
05:00:00 clear sky 24.700 24.700 24.700 36 3.64 m/h 0 %
08:00:00 clear sky 28.960 28.960 28.960 43 4.95 m/h 0 %
11:00:00 clear sky 36.600 36.600 36.600 23 5.95 m/h 0 %
14:00:00 clear sky 38.160 38.160 38.160 19 4.88 m/h 0 %
17:00:00 clear sky 36.000 36.000 36.000 23 3.75 m/h 0 %
20:00:00 clear sky 29.530 29.530 29.530 31 3.58 m/h 0 %
23:00:00 clear sky 27.620 27.620 27.620 32 3.52 m/h 0 %
30-Sep-2022 (Fri)
02:00:00 clear sky 25.730 25.730 25.730 31 3.71 m/h 0 %
05:00:00 clear sky 24.520 24.520 24.520 39 3.49 m/h 0 %
08:00:00 clear sky 28.840 28.840 28.840 41 4.82 m/h 0 %
11:00:00 clear sky 36.570 36.570 36.570 24 6.05 m/h 0 %
14:00:00 clear sky 38.610 38.610 38.610 18 5.14 m/h 0 %
17:00:00 clear sky 36.300 36.300 36.300 22 4.03 m/h 0 %
20:00:00 clear sky 29.960 29.960 29.960 31 4.11 m/h 0 %
23:00:00 clear sky 27.820 27.820 27.820 36 3.9 m/h 0 %
01-Oct-2022 (Sat)
02:00:00 clear sky 26.140 26.140 26.140 42 3.72 m/h 0 %
05:00:00 clear sky 25.130 25.130 25.130 41 3.81 m/h 0 %
08:00:00 clear sky 28.860 28.860 28.860 40 5.34 m/h 0 %

Famous Cities (61)